This is the latest recevied weather packets stored in our database for station/object IT9CYW-10. If no packets are shown the sender has not sent any weather packets the latest 1 day(s).
| Time | Temp. | Humidity | Pressure | Rain* | Wind** | Luminosity | Snow |
|---|---|---|---|---|---|---|---|
| 1777994897 | 20.56° C | 73% | 996.7 hPa | - | 0.89 m/s, 24° | 145 W/m² | - |
| 1777993997 | 21.11° C | 70% | 996.9 hPa | - | 0.89 m/s, 60° | 257 W/m² | - |
| 1777993097 | 21.67° C | 70% | 996.7 hPa | - | 1.34 m/s, 27° | 290 W/m² | - |
| 1777992197 | 21.67° C | 72% | 996.7 hPa | - | 0.45 m/s, 338° | 349 W/m² | - |
| 1777991297 | 22.22° C | 69% | 996.5 hPa | - | 1.34 m/s, 34° | 382 W/m² | - |
| 1777990397 | 23.33° C | 63% | 996.5 hPa | - | 0.89 m/s, 54° | 478 W/m² | - |
| 1777989497 | 23.33° C | 63% | 996.9 hPa | - | 1.79 m/s, 53° | 562 W/m² | - |
| 1777988597 | 23.33° C | 64% | 996.9 hPa | - | 0.45 m/s, 50° | 529 W/m² | - |
| 1777987696 | 22.22° C | 67% | 996.9 hPa | - | 1.34 m/s, 88° | 683 W/m² | - |
| 1777986796 | 22.22° C | 66% | 997.2 hPa | - | 0.89 m/s, 44° | 540 W/m² | - |
| 1777985896 | 22.78° C | 65% | 997 hPa | - | 0.45 m/s, 99° | 711 W/m² | - |
| 1777984996 | 23.33° C | 61% | 997.2 hPa | - | 1.79 m/s, 69° | 798 W/m² | - |
| 1777984096 | 22.22° C | 62% | 997.2 hPa | - | 1.34 m/s, 62° | 454 W/m² | - |
| 1777983196 | 23.89° C | 59% | 997.2 hPa | - | 1.34 m/s, 335° | 821 W/m² | - |
| 1777982296 | 22.78° C | 60% | 997.4 hPa | - | 1.79 m/s, 26° | 571 W/m² | - |
| 1777981395 | 23.33° C | 59% | 997 hPa | - | 0 m/s | 398 W/m² | - |
| 1777979599 | 22.78° C | 61% | 997.7 hPa | - | 1.34 m/s, 87° | 705 W/m² | - |
| 1777978699 | 22.78° C | 62% | 997.2 hPa | - | 0.45 m/s, 42° | 482 W/m² | - |
| 1777977799 | 23.33° C | 62% | 997.4 hPa | - | 0.89 m/s, 56° | 443 W/m² | - |
| 1777976899 | 23.33° C | 59% | 997.7 hPa | - | 0.89 m/s, 51° | 557 W/m² | - |
| 1777975999 | 23.33° C | 56% | 997.5 hPa | - | 0.89 m/s, 354° | 593 W/m² | - |
| 1777975099 | 23.89° C | 57% | 997.4 hPa | - | 0.45 m/s, 45° | 797 W/m² | - |
| 1777974199 | 23.33° C | 57% | 997.5 hPa | - | 0.45 m/s, 8° | 728 W/m² | - |
| 1777973298 | 22.78° C | 61% | 997.7 hPa | - | 0.45 m/s, 19° | 773 W/m² | - |
| 1777972398 | 22.22° C | 58% | 997.9 hPa | - | 0.89 m/s, 81° | 773 W/m² | - |
* Rain since midnight (hover to see other rain measurements)
** Current wind speed in m/s (hover to see current wind gust speed)